createdAt,value
2023-02-06T00:01:27.624Z,1.10
2023-02-06T00:03:33.043Z,1.08
2023-02-06T00:05:36.902Z,1.06
2023-02-06T00:07:40.757Z,1.06
2023-02-06T00:09:44.456Z,1.08
2023-02-06T00:11:47.937Z,1.09
2023-02-06T00:13:51.861Z,1.10
2023-02-06T00:15:55.493Z,1.13
2023-02-06T00:17:59.164Z,1.15
2023-02-06T00:20:04.137Z,1.16
2023-02-06T00:22:07.954Z,1.14
2023-02-06T00:24:11.579Z,1.14
2023-02-06T00:26:15.169Z,1.15
2023-02-06T00:28:19.121Z,1.16
2023-02-06T00:30:23.094Z,1.18
2023-02-06T00:32:27.045Z,1.23
2023-02-06T00:34:30.983Z,1.27
2023-02-06T00:36:37.730Z,1.29
2023-02-06T00:38:41.602Z,1.30
2023-02-06T00:40:45.303Z,1.34
2023-02-06T00:42:49.104Z,1.39
2023-02-06T00:44:53.116Z,1.45
2023-02-06T00:46:58.941Z,1.48
2023-02-06T00:49:03.350Z,1.52
2023-02-06T00:51:07.651Z,1.55
2023-02-06T00:53:15.540Z,1.57
2023-02-06T00:55:21.401Z,1.58
2023-02-06T00:57:25.676Z,1.61
2023-02-06T00:59:29.355Z,1.62
2023-02-06T01:01:34.980Z,1.65
2023-02-06T01:03:38.761Z,1.68
2023-02-06T01:05:42.559Z,1.72
2023-02-06T01:07:48.039Z,1.73
2023-02-06T01:09:53.166Z,1.75
2023-02-06T01:11:57.042Z,1.79
2023-02-06T01:14:03.381Z,1.82
2023-02-06T01:16:09.969Z,1.84
2023-02-06T01:18:13.962Z,1.86
2023-02-06T01:20:17.676Z,1.89
2023-02-06T01:22:21.819Z,1.92
2023-02-06T01:24:25.721Z,1.95
2023-02-06T01:26:31.141Z,1.97
2023-02-06T01:28:37.268Z,2.00
2023-02-06T01:30:41.108Z,2.02
2023-02-06T01:32:45.152Z,2.02
2023-02-06T01:34:52.229Z,2.06
2023-02-06T01:36:55.932Z,2.10
2023-02-06T01:38:59.574Z,2.14
2023-02-06T01:41:03.738Z,2.15
2023-02-06T01:43:18.070Z,2.16
2023-02-06T01:45:37.417Z,2.17
2023-02-06T01:47:41.590Z,2.17
2023-02-06T01:49:49.395Z,2.20
2023-02-06T01:51:55.048Z,2.23
2023-02-06T01:54:02.369Z,2.25
2023-02-06T01:56:08.222Z,2.27
2023-02-06T01:58:18.810Z,2.29
2023-02-06T02:00:22.848Z,2.30
2023-02-06T02:02:29.254Z,2.32
2023-02-06T02:04:34.579Z,2.33
2023-02-06T02:06:39.332Z,2.35
2023-02-06T02:08:45.765Z,2.34
2023-02-06T02:10:49.655Z,2.34
2023-02-06T02:12:53.379Z,2.39
2023-02-06T02:14:59.622Z,2.39
2023-02-06T02:17:15.390Z,2.42
2023-02-06T02:19:49.248Z,2.46
2023-02-06T02:22:40.232Z,2.49
2023-02-06T02:25:06.675Z,2.52
2023-02-06T02:27:36.097Z,2.57
2023-02-06T02:30:31.934Z,2.61
2023-02-06T02:33:05.569Z,2.67
2023-02-06T02:35:28.668Z,2.69
2023-02-06T02:37:44.951Z,2.74
2023-02-06T02:39:57.555Z,2.75
2023-02-06T02:42:07.764Z,2.63
2023-02-06T02:44:17.033Z,2.61
2023-02-06T02:46:26.134Z,2.60
2023-02-06T02:48:33.728Z,2.57
2023-02-06T02:50:41.483Z,2.52
2023-02-06T02:52:45.027Z,2.49
2023-02-06T02:54:48.316Z,2.49
2023-02-06T02:56:52.441Z,2.48
2023-02-06T02:59:00.543Z,2.49
2023-02-06T03:01:07.397Z,2.51
2023-02-06T03:03:15.386Z,2.54
2023-02-06T03:05:21.988Z,2.55
2023-02-06T03:07:34.088Z,2.54
2023-02-06T03:09:50.464Z,2.52
2023-02-06T03:12:06.390Z,2.49
2023-02-06T03:14:15.739Z,2.43
2023-02-06T03:16:25.190Z,2.35
2023-02-06T03:18:36.054Z,2.30
2023-02-06T03:20:44.630Z,2.27
2023-02-06T03:22:51.883Z,2.20
2023-02-06T03:24:59.340Z,2.18
2023-02-06T03:27:06.424Z,2.15
2023-02-06T03:29:13.733Z,2.09
2023-02-06T03:31:22.420Z,2.05
2023-02-06T03:33:32.168Z,2.01
2023-02-06T03:35:38.829Z,1.99
2023-02-06T03:37:42.722Z,1.94
2023-02-06T03:39:47.662Z,1.83
2023-02-06T03:41:52.927Z,1.78
2023-02-06T03:43:58.471Z,1.67
2023-02-06T03:46:05.478Z,1.55
2023-02-06T03:48:13.475Z,1.54
2023-02-06T03:50:18.817Z,1.49
2023-02-06T03:52:24.814Z,1.38
2023-02-06T03:54:30.691Z,1.39
2023-02-06T03:56:40.131Z,1.42
2023-02-06T03:58:43.747Z,1.45
2023-02-06T04:00:48.342Z,1.47
2023-02-06T04:02:53.935Z,1.46
2023-02-06T04:04:57.464Z,1.38
2023-02-06T04:07:04.417Z,1.29
2023-02-06T04:09:08.100Z,1.21
2023-02-06T04:11:11.576Z,1.12
2023-02-06T04:13:16.721Z,1.01
2023-02-06T04:15:20.334Z,1.04
2023-02-06T04:17:40.597Z,1.08
2023-02-06T04:19:47.573Z,1.13
2023-02-06T04:21:51.321Z,1.16
2023-02-06T04:23:54.712Z,1.14
2023-02-06T04:25:58.160Z,1.08
2023-02-06T04:28:01.898Z,1.02
2023-02-06T04:30:08.429Z,1.00
2023-02-06T04:32:12.318Z,1.00
2023-02-06T04:34:16.122Z,1.02
2023-02-06T04:36:19.946Z,1.04
2023-02-06T04:38:23.473Z,1.05
2023-02-06T04:40:27.218Z,1.01
2023-02-06T04:42:30.725Z,1.00
2023-02-06T04:44:35.265Z,1.04
2023-02-06T04:46:40.505Z,1.03
2023-02-06T04:48:44.561Z,1.01
2023-02-06T04:50:48.181Z,1.00
2023-02-06T04:52:51.698Z,0.99
2023-02-06T04:54:55.442Z,0.99
2023-02-06T04:56:59.091Z,0.98
2023-02-06T04:59:02.818Z,0.97
2023-02-06T05:01:06.789Z,0.96
2023-02-06T05:03:11.920Z,0.97
2023-02-06T05:05:15.841Z,0.96
2023-02-06T05:07:19.609Z,0.94
2023-02-06T05:09:23.220Z,0.92
2023-02-06T05:11:26.779Z,0.87
2023-02-06T05:13:30.443Z,0.65
2023-02-06T05:15:34.387Z,0.61
2023-02-06T05:17:38.120Z,0.59
2023-02-06T05:19:43.211Z,0.60
2023-02-06T05:21:46.854Z,0.63
2023-02-06T05:23:50.615Z,0.66
2023-02-06T05:25:54.279Z,0.68
2023-02-06T05:27:58.664Z,0.69
2023-02-06T05:30:02.290Z,0.70
2023-02-06T05:32:06.164Z,0.67
2023-02-06T05:34:11.326Z,0.66
2023-02-06T05:36:16.376Z,0.65
2023-02-06T05:38:20.389Z,0.64
2023-02-06T05:40:24.065Z,0.65
2023-02-06T05:42:27.677Z,0.57
2023-02-06T05:44:31.243Z,0.54
2023-02-06T05:46:34.989Z,0.53
2023-02-06T05:48:38.716Z,0.55
2023-02-06T05:50:43.319Z,0.49
2023-02-06T05:52:52.964Z,0.30
2023-02-06T05:54:56.663Z,0.22
2023-02-06T05:57:00.227Z,0.15
2023-02-06T05:59:03.714Z,0.14
2023-02-06T06:01:07.302Z,0.12
2023-02-06T06:03:10.976Z,0.14
2023-02-06T06:05:14.535Z,0.19
2023-02-06T06:07:18.256Z,0.25
2023-02-06T06:09:23.598Z,0.26
2023-02-06T06:11:27.348Z,0.27
2023-02-06T06:13:31.457Z,0.29
2023-02-06T06:15:35.158Z,0.32
2023-02-06T06:17:38.873Z,0.37
2023-02-06T06:19:42.497Z,0.39
2023-02-06T06:21:46.172Z,0.40
2023-02-06T06:23:50.042Z,0.45
2023-02-06T06:25:55.136Z,0.51
2023-02-06T06:27:58.787Z,0.56
2023-02-06T06:30:02.836Z,0.56
2023-02-06T06:32:07.083Z,0.58
2023-02-06T06:34:10.635Z,0.62
2023-02-06T06:36:15.175Z,0.62
2023-02-06T06:38:18.789Z,0.65
2023-02-06T06:40:22.452Z,0.66
2023-02-06T06:42:27.342Z,0.69
2023-02-06T06:44:30.987Z,0.71
2023-02-06T06:46:34.702Z,0.74
2023-02-06T06:48:38.630Z,0.77
2023-02-06T06:50:42.071Z,0.74
2023-02-06T06:52:45.651Z,0.78
2023-02-06T06:54:50.876Z,0.80
2023-02-06T06:56:55.531Z,0.87
2023-02-06T06:59:00.452Z,0.90
2023-02-06T07:01:04.115Z,0.91
2023-02-06T07:03:08.692Z,0.92
2023-02-06T07:05:12.729Z,0.94
2023-02-06T07:07:17.519Z,0.97
2023-02-06T07:09:21.974Z,0.96
2023-02-06T07:11:26.664Z,0.93
2023-02-06T07:13:32.649Z,0.93
2023-02-06T07:15:38.116Z,0.95
2023-02-06T07:17:41.737Z,0.99
2023-02-06T07:19:48.361Z,1.00
2023-02-06T07:21:52.023Z,1.04
2023-02-06T07:23:55.718Z,1.05
2023-02-06T07:26:02.600Z,1.08
2023-02-06T07:28:06.471Z,1.14
2023-02-06T07:30:11.633Z,1.19
2023-02-06T07:32:16.770Z,1.23
2023-02-06T07:34:20.439Z,1.30
2023-02-06T07:36:24.374Z,1.38
2023-02-06T07:38:29.096Z,1.47
2023-02-06T07:40:44.742Z,1.54
2023-02-06T07:42:49.611Z,1.61
2023-02-06T07:45:01.327Z,1.67
2023-02-06T07:47:06.110Z,1.72
2023-02-06T07:49:15.805Z,1.75
2023-02-06T07:51:20.892Z,1.79
2023-02-06T07:53:25.392Z,1.82
2023-02-06T07:55:29.139Z,1.82
2023-02-06T07:57:33.182Z,1.85
2023-02-06T07:59:37.271Z,1.91
2023-02-06T08:01:41.120Z,1.92
2023-02-06T08:03:44.796Z,1.92
2023-02-06T08:05:49.902Z,1.97
2023-02-06T08:07:54.016Z,1.98
2023-02-06T08:09:57.636Z,2.01
2023-02-06T08:12:01.601Z,2.05
2023-02-06T08:14:05.192Z,2.07
2023-02-06T08:16:12.162Z,2.12
2023-02-06T08:18:15.859Z,2.07
2023-02-06T08:20:25.454Z,1.97
2023-02-06T08:22:32.660Z,1.97
2023-02-06T08:24:37.156Z,2.05
2023-02-06T08:26:41.563Z,2.16
2023-02-06T08:28:46.509Z,2.24
2023-02-06T08:30:50.766Z,2.33
2023-02-06T08:32:54.485Z,2.42
2023-02-06T08:34:58.216Z,2.47
2023-02-06T08:37:01.895Z,2.51
2023-02-06T08:39:07.678Z,2.55
2023-02-06T08:41:19.272Z,2.61
2023-02-06T08:43:22.964Z,2.62
2023-02-06T08:45:27.559Z,2.64
2023-02-06T08:47:31.583Z,2.66
2023-02-06T08:49:35.489Z,2.68
2023-02-06T08:51:39.750Z,2.67
2023-02-06T08:53:43.326Z,2.70
2023-02-06T08:55:48.491Z,2.80
2023-02-06T08:57:52.230Z,2.88
2023-02-06T08:59:56.242Z,2.96
2023-02-06T09:02:00.123Z,3.03
2023-02-06T09:04:06.626Z,3.12
2023-02-06T09:06:11.074Z,3.18
2023-02-06T09:08:15.096Z,3.26
2023-02-06T09:10:27.374Z,3.32
2023-02-06T09:12:33.179Z,3.40
2023-02-06T09:14:36.746Z,3.44
2023-02-06T09:16:40.350Z,3.53
2023-02-06T09:18:44.053Z,3.61
2023-02-06T09:20:50.049Z,3.69
2023-02-06T09:22:53.928Z,3.79
2023-02-06T09:24:57.697Z,3.87
2023-02-06T09:27:01.694Z,3.96
2023-02-06T09:29:08.653Z,4.02
2023-02-06T09:31:15.279Z,4.11
2023-02-06T09:33:19.785Z,4.20
2023-02-06T09:35:23.577Z,4.31
2023-02-06T09:37:27.299Z,4.40
2023-02-06T09:39:31.717Z,4.49
2023-02-06T09:44:06.635Z,4.63
2023-02-06T09:46:17.198Z,4.67
2023-02-06T09:48:23.729Z,4.71
2023-02-06T09:50:31.917Z,4.73
2023-02-06T09:52:56.928Z,4.77
2023-02-06T09:55:10.345Z,4.79
2023-02-06T09:57:20.752Z,4.80
2023-02-06T09:59:31.619Z,4.81
2023-02-06T10:01:44.056Z,4.85
2023-02-06T10:04:12.967Z,4.89
2023-02-06T10:06:23.445Z,4.94
2023-02-06T10:08:34.250Z,4.97
2023-02-06T10:10:43.532Z,5.02
2023-02-06T10:12:52.733Z,5.05
2023-02-06T10:15:02.272Z,5.11
2023-02-06T10:17:18.041Z,5.16
2023-02-06T10:19:27.065Z,5.19
2023-02-06T10:21:37.088Z,5.23
2023-02-06T10:23:47.633Z,5.28
2023-02-06T10:26:05.293Z,5.31
2023-02-06T10:28:26.731Z,5.35
2023-02-06T10:30:41.557Z,5.39
2023-02-06T10:32:53.435Z,5.41
2023-02-06T10:35:28.622Z,5.45
2023-02-06T10:37:56.155Z,5.47
2023-02-06T10:40:21.006Z,5.51
2023-02-06T10:42:33.658Z,5.55
2023-02-06T10:44:51.052Z,5.57
2023-02-06T10:46:56.565Z,5.61
2023-02-06T10:49:04.198Z,5.62
2023-02-06T10:51:17.676Z,5.65
2023-02-06T10:53:27.000Z,5.69
2023-02-06T10:55:37.290Z,5.72
2023-02-06T10:57:43.105Z,5.76
2023-02-06T10:59:48.957Z,5.81
2023-02-06T11:02:00.626Z,5.83
2023-02-06T11:04:14.056Z,5.90
2023-02-06T11:06:21.785Z,5.94
2023-02-06T11:08:31.298Z,5.99
2023-02-06T11:10:35.850Z,6.04
2023-02-06T11:12:43.655Z,6.07
2023-02-06T11:14:47.801Z,6.13
2023-02-06T11:16:52.474Z,6.19
2023-02-06T11:18:59.679Z,6.23
2023-02-06T11:21:05.496Z,6.31
2023-02-06T11:23:18.109Z,6.36
2023-02-06T11:25:27.021Z,6.39
2023-02-06T11:27:32.316Z,6.44
2023-02-06T11:29:39.295Z,6.49
2023-02-06T11:31:45.775Z,6.54
2023-02-06T11:33:53.840Z,6.57
2023-02-06T11:36:00.679Z,6.59
2023-02-06T11:38:16.274Z,6.63
2023-02-06T11:40:27.388Z,6.67
2023-02-06T11:42:30.990Z,6.71
2023-02-06T11:44:40.019Z,6.74
2023-02-06T11:46:43.614Z,6.78
2023-02-06T11:48:49.004Z,6.82
2023-02-06T11:50:56.277Z,6.86
2023-02-06T11:53:08.900Z,6.91
2023-02-06T11:55:24.012Z,6.97
2023-02-06T11:57:28.099Z,7.02
2023-02-06T11:59:34.919Z,7.07
2023-02-06T12:01:46.086Z,7.13
2023-02-06T12:03:57.842Z,7.19
2023-02-06T12:06:08.753Z,7.25
2023-02-06T12:08:18.674Z,7.28
2023-02-06T12:10:27.433Z,7.24
2023-02-06T12:12:35.930Z,7.24
2023-02-06T12:14:41.953Z,7.21
2023-02-06T12:16:48.081Z,7.18
2023-02-06T12:18:57.594Z,7.17
2023-02-06T12:21:08.015Z,7.15
2023-02-06T12:23:21.158Z,7.14
2023-02-06T12:25:31.983Z,7.08
2023-02-06T12:27:39.730Z,7.06
2023-02-06T12:29:47.305Z,7.04
2023-02-06T12:32:01.056Z,7.01
2023-02-06T12:34:14.317Z,6.98
2023-02-06T12:36:22.135Z,6.94
2023-02-06T12:38:36.898Z,6.93
2023-02-06T12:40:47.010Z,6.92
2023-02-06T12:42:55.387Z,6.94
2023-02-06T12:45:04.272Z,6.97
2023-02-06T12:47:15.852Z,7.02
2023-02-06T12:49:24.875Z,7.13
2023-02-06T12:51:33.441Z,7.23
2023-02-06T12:53:41.485Z,7.33
2023-02-06T12:55:54.300Z,7.44
2023-02-06T12:57:59.298Z,7.51
2023-02-06T13:00:20.117Z,7.57
2023-02-06T13:02:37.004Z,7.63
2023-02-06T13:04:41.453Z,7.65
2023-02-06T13:06:51.913Z,7.65
2023-02-06T13:08:58.393Z,7.65
2023-02-06T13:11:08.114Z,7.65
2023-02-06T13:13:28.727Z,7.63
2023-02-06T13:15:39.258Z,7.65
2023-02-06T13:17:45.279Z,7.65
2023-02-06T13:20:01.134Z,7.67
2023-02-06T13:22:24.535Z,7.67
2023-02-06T13:24:28.381Z,7.67
2023-02-06T13:27:05.680Z,7.66
2023-02-06T13:29:25.476Z,7.67
2023-02-06T13:31:32.480Z,7.65
2023-02-06T13:33:43.276Z,7.65
2023-02-06T13:36:08.353Z,7.65
2023-02-06T13:38:28.600Z,7.66
2023-02-06T13:40:35.496Z,7.66
2023-02-06T13:42:45.299Z,7.68
2023-02-06T13:44:48.936Z,7.71
2023-02-06T13:47:25.509Z,7.74
2023-02-06T13:50:17.162Z,7.73
2023-02-06T13:52:29.130Z,7.75
2023-02-06T13:54:57.233Z,7.77
2023-02-06T13:57:29.656Z,7.78
2023-02-06T13:59:37.890Z,7.80
2023-02-06T14:01:41.915Z,7.79
2023-02-06T14:03:48.505Z,7.78
2023-02-06T14:06:00.460Z,7.72
2023-02-06T14:08:12.431Z,7.68
2023-02-06T14:10:31.489Z,7.62
2023-02-06T14:12:49.969Z,7.57
2023-02-06T14:15:08.616Z,7.52
2023-02-06T14:17:28.555Z,7.48
2023-02-06T14:19:48.420Z,7.43
2023-02-06T14:22:04.725Z,7.39
2023-02-06T14:24:23.406Z,7.37
2023-02-06T14:26:36.698Z,7.35
2023-02-06T14:28:52.235Z,7.31
2023-02-06T14:31:02.895Z,7.28
2023-02-06T14:33:35.253Z,7.26
2023-02-06T14:35:51.051Z,7.24
2023-02-06T14:38:16.401Z,7.22
2023-02-06T14:40:24.252Z,7.20
2023-02-06T14:42:32.821Z,7.19
2023-02-06T14:44:36.830Z,7.17
2023-02-06T14:46:43.472Z,7.16
2023-02-06T14:48:50.218Z,7.16
2023-02-06T14:50:57.176Z,7.16
2023-02-06T14:53:06.423Z,7.19
2023-02-06T14:55:31.071Z,7.22
2023-02-06T14:57:35.244Z,7.25
2023-02-06T14:59:39.497Z,7.25
2023-02-06T15:01:47.072Z,7.28
2023-02-06T15:03:54.951Z,7.29
2023-02-06T15:06:04.424Z,7.29
2023-02-06T15:08:08.926Z,7.32
2023-02-06T15:10:16.440Z,7.36
2023-02-06T15:12:24.107Z,7.37
2023-02-06T15:14:29.495Z,7.40
2023-02-06T15:16:48.340Z,7.43
2023-02-06T15:18:52.079Z,7.44
2023-02-06T15:20:57.692Z,7.46
2023-02-06T15:23:17.648Z,7.48
2023-02-06T15:25:36.184Z,7.50
2023-02-06T15:27:40.876Z,7.53
2023-02-06T15:29:49.612Z,7.52
2023-02-06T15:32:03.175Z,7.53
2023-02-06T15:34:06.913Z,7.51
2023-02-06T15:36:23.893Z,7.50
2023-02-06T15:38:30.433Z,7.51
2023-02-06T15:40:35.875Z,7.52
2023-02-06T15:42:40.003Z,7.51
2023-02-06T15:44:44.060Z,7.49
2023-02-06T15:46:49.348Z,7.50
2023-02-06T15:48:57.573Z,7.51
2023-02-06T15:51:03.568Z,7.53
2023-02-06T15:53:19.904Z,7.55
2023-02-06T15:55:26.721Z,7.58
2023-02-06T15:57:33.584Z,7.63
2023-02-06T15:59:41.772Z,7.66
2023-02-06T16:01:46.181Z,7.70
2023-02-06T16:03:53.459Z,7.71
2023-02-06T16:05:59.021Z,7.74
2023-02-06T16:08:04.043Z,7.77
2023-02-06T16:10:20.129Z,7.78
2023-02-06T16:12:24.994Z,7.79
2023-02-06T16:14:35.600Z,7.79
2023-02-06T16:16:39.266Z,7.79
2023-02-06T16:18:43.162Z,7.77
2023-02-06T16:20:47.234Z,7.76
2023-02-06T16:22:57.293Z,7.75
2023-02-06T16:25:23.402Z,7.70
2023-02-06T16:27:29.123Z,7.68
2023-02-06T16:29:34.056Z,7.63
2023-02-06T16:31:40.078Z,7.58
2023-02-06T16:33:45.644Z,7.55
2023-02-06T16:35:50.510Z,7.50
2023-02-06T16:37:56.199Z,7.45
2023-02-06T16:39:59.861Z,7.41
2023-02-06T16:42:03.457Z,7.39
2023-02-06T16:44:14.665Z,7.33
2023-02-06T16:46:18.104Z,7.28
2023-02-06T16:48:21.690Z,7.27
2023-02-06T16:50:25.294Z,7.22
2023-02-06T16:52:32.006Z,7.18
2023-02-06T16:54:37.386Z,7.14
2023-02-06T16:56:41.143Z,7.10
2023-02-06T16:58:45.293Z,7.05
2023-02-06T17:00:49.228Z,7.03
2023-02-06T17:02:54.064Z,6.99
2023-02-06T17:04:57.688Z,6.92
2023-02-06T17:07:01.331Z,6.89
2023-02-06T17:09:09.286Z,6.86
2023-02-06T17:11:14.251Z,6.82
2023-02-06T17:13:19.478Z,6.78
2023-02-06T17:15:23.080Z,6.75
2023-02-06T17:17:26.643Z,6.70
2023-02-06T17:19:30.292Z,6.66
2023-02-06T17:21:33.982Z,6.63
2023-02-06T17:23:37.542Z,6.58
2023-02-06T17:25:42.707Z,6.56
2023-02-06T17:27:48.096Z,6.52
2023-02-06T17:29:53.856Z,6.50
2023-02-06T17:31:57.486Z,6.47
2023-02-06T17:34:01.247Z,6.42
2023-02-06T17:36:07.899Z,6.38
2023-02-06T17:38:11.871Z,6.34
2023-02-06T17:40:20.608Z,6.32
2023-02-06T17:42:25.869Z,6.28
2023-02-06T17:44:30.951Z,6.24
2023-02-06T17:46:34.440Z,6.21
2023-02-06T17:48:42.787Z,6.19
2023-02-06T17:50:46.450Z,6.17
2023-02-06T17:52:49.958Z,6.16
2023-02-06T17:54:53.671Z,6.15
2023-02-06T17:56:57.198Z,6.14
2023-02-06T17:59:00.779Z,6.12
2023-02-06T18:01:06.270Z,6.10
2023-02-06T18:03:09.948Z,6.09
2023-02-06T18:05:13.468Z,6.08
2023-02-06T18:07:17.250Z,6.08
2023-02-06T18:09:21.204Z,6.06
2023-02-06T18:11:25.500Z,6.05
2023-02-06T18:13:29.213Z,6.04
2023-02-06T18:15:33.306Z,6.03
2023-02-06T18:17:38.357Z,6.02
2023-02-06T18:19:44.292Z,6.02
2023-02-06T18:21:48.012Z,6.00
2023-02-06T18:23:52.830Z,6.01
2023-02-06T18:25:56.544Z,6.01
2023-02-06T18:28:00.367Z,6.00
2023-02-06T18:30:05.136Z,5.99
2023-02-06T18:32:10.467Z,5.98
2023-02-06T18:34:15.390Z,5.95
2023-02-06T18:36:19.042Z,5.92
2023-02-06T18:38:22.582Z,5.90
2023-02-06T18:40:26.113Z,5.88
2023-02-06T18:42:47.371Z,5.84
2023-02-06T18:44:50.853Z,5.82
2023-02-06T18:46:54.684Z,5.83
2023-02-06T18:49:03.672Z,5.83
2023-02-06T18:51:10.048Z,5.82
2023-02-06T18:53:13.697Z,5.81
2023-02-06T18:55:18.340Z,5.79
2023-02-06T18:57:22.247Z,5.77
2023-02-06T18:59:25.927Z,5.74
2023-02-06T19:01:29.761Z,5.69
2023-02-06T19:03:33.240Z,5.66
2023-02-06T19:05:37.716Z,5.62
2023-02-06T19:07:43.077Z,5.58
2023-02-06T19:09:47.097Z,5.55
2023-02-06T19:11:50.638Z,5.55
2023-02-06T19:13:54.179Z,5.54
2023-02-06T19:16:06.674Z,5.54
2023-02-06T19:18:10.897Z,5.55
2023-02-06T19:20:14.593Z,5.55
2023-02-06T19:22:18.375Z,5.55
2023-02-06T19:24:24.151Z,5.55
2023-02-06T19:26:28.658Z,5.55
2023-02-06T19:28:34.257Z,5.56
2023-02-06T19:30:38.121Z,5.58
2023-02-06T19:32:41.954Z,5.59
2023-02-06T19:34:45.646Z,5.60
2023-02-06T19:36:49.207Z,5.60
2023-02-06T19:38:56.476Z,5.61
2023-02-06T19:41:08.128Z,5.61
2023-02-06T19:43:11.673Z,5.61
2023-02-06T19:45:15.832Z,5.61
2023-02-06T19:47:19.298Z,5.62
2023-02-06T19:49:22.859Z,5.62
2023-02-06T19:51:29.198Z,5.61
2023-02-06T19:53:34.489Z,5.63
2023-02-06T19:55:38.466Z,5.63
2023-02-06T19:57:43.528Z,5.65
2023-02-06T19:59:47.196Z,5.63
2023-02-06T20:01:53.162Z,5.65
2023-02-06T20:03:57.572Z,5.65
2023-02-06T20:06:02.732Z,5.67
2023-02-06T20:08:06.577Z,5.68
2023-02-06T20:10:11.218Z,5.68
2023-02-06T20:12:15.818Z,5.68
2023-02-06T20:14:22.202Z,5.69
2023-02-06T20:16:28.146Z,5.71
2023-02-06T20:18:32.339Z,5.74
2023-02-06T20:20:37.364Z,5.75
2023-02-06T20:22:41.638Z,5.76
2023-02-06T20:24:46.053Z,5.80
2023-02-06T20:26:52.591Z,5.80
2023-02-06T20:28:57.776Z,5.80
2023-02-06T20:31:09.875Z,5.80
2023-02-06T20:33:13.630Z,5.81
2023-02-06T20:35:17.467Z,5.81
2023-02-06T20:37:21.650Z,5.81
2023-02-06T20:39:26.603Z,5.80
2023-02-06T20:41:33.416Z,5.79
2023-02-06T20:43:37.439Z,5.78
2023-02-06T20:45:41.238Z,5.79
2023-02-06T20:47:46.566Z,5.78
2023-02-06T20:49:50.373Z,5.79
2023-02-06T20:51:58.378Z,5.77
2023-02-06T20:54:02.178Z,5.78
2023-02-06T20:56:08.200Z,5.75
2023-02-06T20:58:12.329Z,5.76
2023-02-06T21:00:18.330Z,5.74
2023-02-06T21:02:23.333Z,5.74
2023-02-06T21:04:32.627Z,5.73
2023-02-06T21:06:37.820Z,5.72
2023-02-06T21:08:41.412Z,5.73
2023-02-06T21:10:45.604Z,5.75
2023-02-06T21:12:49.684Z,5.75
2023-02-06T21:14:53.351Z,5.74
2023-02-06T21:16:57.657Z,5.75
2023-02-06T21:19:02.773Z,5.75
2023-02-06T21:21:10.160Z,5.73
2023-02-06T21:23:14.526Z,5.72
2023-02-06T21:25:18.951Z,5.71
2023-02-06T21:27:22.584Z,5.69
2023-02-06T21:29:26.393Z,5.68
2023-02-06T21:31:37.033Z,5.68
2023-02-06T21:33:41.735Z,5.67
2023-02-06T21:35:51.330Z,5.66
2023-02-06T21:37:56.547Z,5.65
2023-02-06T21:40:00.477Z,5.65
2023-02-06T21:42:04.234Z,5.65
2023-02-06T21:44:08.088Z,5.68
2023-02-06T21:46:13.285Z,5.67
2023-02-06T21:48:16.977Z,5.68
2023-02-06T21:50:21.082Z,5.69
2023-02-06T21:52:24.643Z,5.68
2023-02-06T21:54:30.298Z,5.67
2023-02-06T21:56:35.470Z,5.65
2023-02-06T21:58:39.604Z,5.67
2023-02-06T22:00:44.550Z,5.67
2023-02-06T22:02:48.047Z,5.68
2023-02-06T22:04:52.024Z,5.68
2023-02-06T22:06:55.678Z,5.69
2023-02-06T22:09:05.331Z,5.69
2023-02-06T22:11:15.459Z,5.69
2023-02-06T22:13:19.217Z,5.71
2023-02-06T22:15:23.132Z,5.71
2023-02-06T22:17:27.346Z,5.73
2023-02-06T22:19:31.409Z,5.72
2023-02-06T22:21:36.351Z,5.71
2023-02-06T22:23:41.495Z,5.72
2023-02-06T22:25:47.828Z,5.72
2023-02-06T22:27:53.162Z,5.73
2023-02-06T22:29:56.808Z,5.75
2023-02-06T22:32:04.577Z,5.76
2023-02-06T22:34:11.958Z,5.78
2023-02-06T22:36:18.062Z,5.80
2023-02-06T22:38:21.465Z,5.80
2023-02-06T22:40:25.898Z,5.81
2023-02-06T22:42:29.664Z,5.81
2023-02-06T22:44:34.670Z,5.82
2023-02-06T22:46:39.587Z,5.83
2023-02-06T22:48:43.046Z,5.84
2023-02-06T22:50:46.822Z,5.83
2023-02-06T22:53:07.770Z,5.83
2023-02-06T22:55:11.390Z,5.84
2023-02-06T22:57:15.855Z,5.88
2023-02-06T22:59:21.842Z,5.91
2023-02-06T23:01:30.726Z,5.92
2023-02-06T23:03:34.393Z,5.95
2023-02-06T23:05:38.023Z,5.96
2023-02-06T23:07:41.702Z,5.97
2023-02-06T23:09:45.269Z,5.99
2023-02-06T23:11:49.457Z,6.00
2023-02-06T23:13:54.696Z,6.01
2023-02-06T23:15:59.616Z,6.04
2023-02-06T23:18:04.689Z,6.06
2023-02-06T23:20:09.478Z,6.08
2023-02-06T23:22:13.565Z,6.10
2023-02-06T23:24:17.571Z,6.11
2023-02-06T23:26:21.829Z,6.13
2023-02-06T23:28:37.001Z,6.15
2023-02-06T23:30:40.963Z,6.16
2023-02-06T23:32:44.570Z,6.18
2023-02-06T23:34:50.774Z,6.19
2023-02-06T23:36:54.722Z,6.20
2023-02-06T23:38:58.437Z,6.22
2023-02-06T23:41:09.665Z,6.22
2023-02-06T23:43:13.134Z,6.21
2023-02-06T23:45:16.757Z,6.22
2023-02-06T23:47:20.312Z,6.22
2023-02-06T23:49:26.049Z,6.23
2023-02-06T23:51:35.284Z,6.25
2023-02-06T23:53:39.975Z,6.26
2023-02-06T23:55:44.742Z,6.27
2023-02-06T23:57:49.099Z,6.30
2023-02-06T23:59:52.957Z,6.30
